sensor_id;sensor_type;location;lat;lon;timestamp;pressure;altitude;pressure_sealevel;temperature;humidity
69223;BME280;56514;51.816;-0.026;2022-07-23T00:02:50;101338.72;;;17.60;58.52
69223;BME280;56514;51.816;-0.026;2022-07-23T00:05:55;101340.97;;;17.55;58.82
69223;BME280;56514;51.816;-0.026;2022-07-23T00:08:41;101346.69;;;17.51;58.80
69223;BME280;56514;51.816;-0.026;2022-07-23T00:11:26;101345.25;;;17.46;58.83
69223;BME280;56514;51.816;-0.026;2022-07-23T00:14:11;101348.06;;;17.45;59.28
69223;BME280;56514;51.816;-0.026;2022-07-23T00:16:56;101347.34;;;17.43;59.05
69223;BME280;56514;51.816;-0.026;2022-07-23T00:19:41;101347.22;;;17.44;59.04
69223;BME280;56514;51.816;-0.026;2022-07-23T00:22:26;101345.25;;;17.46;59.29
69223;BME280;56514;51.816;-0.026;2022-07-23T00:25:12;101347.41;;;17.52;59.57
69223;BME280;56514;51.816;-0.026;2022-07-23T00:28:00;101355.00;;;17.57;58.94
69223;BME280;56514;51.816;-0.026;2022-07-23T00:30:45;101353.91;;;17.60;59.16
69223;BME280;56514;51.816;-0.026;2022-07-23T00:33:30;101343.09;;;17.61;59.01
69223;BME280;56514;51.816;-0.026;2022-07-23T00:36:15;101343.63;;;17.55;59.25
69223;BME280;56514;51.816;-0.026;2022-07-23T00:39:03;101351.91;;;17.52;59.44
69223;BME280;56514;51.816;-0.026;2022-07-23T00:41:49;101352.31;;;17.48;59.24
69223;BME280;56514;51.816;-0.026;2022-07-23T00:44:37;101341.91;;;17.44;59.18
69223;BME280;56514;51.816;-0.026;2022-07-23T00:47:22;101339.34;;;17.43;59.22
69223;BME280;56514;51.816;-0.026;2022-07-23T00:50:09;101338.63;;;17.41;58.92
69223;BME280;56514;51.816;-0.026;2022-07-23T00:52:55;101336.22;;;17.38;59.53
69223;BME280;56514;51.816;-0.026;2022-07-23T00:55:39;101342.41;;;17.38;59.34
69223;BME280;56514;51.816;-0.026;2022-07-23T00:58:24;101343.09;;;17.40;59.76
69223;BME280;56514;51.816;-0.026;2022-07-23T01:01:11;101337.63;;;17.42;59.52
69223;BME280;56514;51.816;-0.026;2022-07-23T01:03:56;101330.97;;;17.48;59.38
69223;BME280;56514;51.816;-0.026;2022-07-23T01:06:43;101331.53;;;17.51;59.49
69223;BME280;56514;51.816;-0.026;2022-07-23T01:09:31;101323.38;;;17.52;59.54
69223;BME280;56514;51.816;-0.026;2022-07-23T01:12:16;101324.09;;;17.55;59.48
69223;BME280;56514;51.816;-0.026;2022-07-23T01:15:01;101321.16;;;17.58;59.78
69223;BME280;56514;51.816;-0.026;2022-07-23T01:17:45;101318.22;;;17.61;59.69
69223;BME280;56514;51.816;-0.026;2022-07-23T01:20:33;101318.22;;;17.61;59.98
69223;BME280;56514;51.816;-0.026;2022-07-23T01:23:18;101314.72;;;17.60;59.97
69223;BME280;56514;51.816;-0.026;2022-07-23T01:26:03;101309.63;;;17.57;59.92
69223;BME280;56514;51.816;-0.026;2022-07-23T01:28:47;101309.09;;;17.54;59.80
69223;BME280;56514;51.816;-0.026;2022-07-23T01:31:32;101311.88;;;17.52;59.98
69223;BME280;56514;51.816;-0.026;2022-07-23T01:34:17;101315.66;;;17.49;60.55
69223;BME280;56514;51.816;-0.026;2022-07-23T01:37:02;101310.72;;;17.45;61.30
69223;BME280;56514;51.816;-0.026;2022-07-23T01:39:47;101303.94;;;17.41;60.98
69223;BME280;56514;51.816;-0.026;2022-07-23T01:42:31;101311.69;;;17.44;60.85
69223;BME280;56514;51.816;-0.026;2022-07-23T01:45:17;101305.63;;;17.42;60.30
69223;BME280;56514;51.816;-0.026;2022-07-23T01:48:01;101310.94;;;17.42;60.72
69223;BME280;56514;51.816;-0.026;2022-07-23T01:50:47;101314.59;;;17.41;60.75
69223;BME280;56514;51.816;-0.026;2022-07-23T01:53:32;101312.06;;;17.39;60.45
69223;BME280;56514;51.816;-0.026;2022-07-23T01:56:17;101315.84;;;17.37;60.72
69223;BME280;56514;51.816;-0.026;2022-07-23T01:59:03;101311.75;;;17.33;61.10
69223;BME280;56514;51.816;-0.026;2022-07-23T02:01:48;101305.00;;;17.29;60.82
69223;BME280;56514;51.816;-0.026;2022-07-23T02:04:38;101309.75;;;17.25;61.14
69223;BME280;56514;51.816;-0.026;2022-07-23T02:07:22;101304.81;;;17.21;60.62
69223;BME280;56514;51.816;-0.026;2022-07-23T02:10:07;101307.47;;;17.21;61.12
69223;BME280;56514;51.816;-0.026;2022-07-23T02:12:53;101312.41;;;17.25;61.01
69223;BME280;56514;51.816;-0.026;2022-07-23T02:15:38;101307.28;;;17.33;60.81
69223;BME280;56514;51.816;-0.026;2022-07-23T02:18:22;101304.06;;;17.39;61.18
69223;BME280;56514;51.816;-0.026;2022-07-23T02:21:07;101307.59;;;17.40;60.91
69223;BME280;56514;51.816;-0.026;2022-07-23T02:23:52;101304.94;;;17.40;60.87
69223;BME280;56514;51.816;-0.026;2022-07-23T02:26:37;101302.84;;;17.43;61.13
69223;BME280;56514;51.816;-0.026;2022-07-23T02:29:22;101311.88;;;17.52;61.11
69223;BME280;56514;51.816;-0.026;2022-07-23T02:32:07;101313.31;;;17.56;60.74
69223;BME280;56514;51.816;-0.026;2022-07-23T02:34:51;101306.84;;;17.59;60.99
69223;BME280;56514;51.816;-0.026;2022-07-23T02:37:38;101302.03;;;17.52;60.98
69223;BME280;56514;51.816;-0.026;2022-07-23T02:40:23;101304.56;;;17.44;61.45
69223;BME280;56514;51.816;-0.026;2022-07-23T02:43:07;101295.75;;;17.33;61.38
69223;BME280;56514;51.816;-0.026;2022-07-23T02:45:52;101302.59;;;17.26;61.52
69223;BME280;56514;51.816;-0.026;2022-07-23T02:48:38;101305.81;;;17.20;61.44
69223;BME280;56514;51.816;-0.026;2022-07-23T02:51:23;101307.03;;;17.16;61.67
69223;BME280;56514;51.816;-0.026;2022-07-23T02:54:07;101310.94;;;17.12;61.96
69223;BME280;56514;51.816;-0.026;2022-07-23T02:56:53;101319.06;;;17.10;62.04
69223;BME280;56514;51.816;-0.026;2022-07-23T02:59:38;101310.22;;;17.10;61.89
69223;BME280;56514;51.816;-0.026;2022-07-23T03:02:23;101308.28;;;17.12;62.14
69223;BME280;56514;51.816;-0.026;2022-07-23T03:05:08;101310.81;;;17.13;61.81
69223;BME280;56514;51.816;-0.026;2022-07-23T03:07:53;101307.03;;;17.16;62.31
69223;BME280;56514;51.816;-0.026;2022-07-23T03:10:38;101315.63;;;17.19;61.99
69223;BME280;56514;51.816;-0.026;2022-07-23T03:13:22;101310.88;;;17.23;62.32
69223;BME280;56514;51.816;-0.026;2022-07-23T03:16:08;101312.03;;;17.30;62.20
69223;BME280;56514;51.816;-0.026;2022-07-23T03:18:52;101315.47;;;17.41;62.39
69223;BME280;56514;51.816;-0.026;2022-07-23T03:21:37;101324.09;;;17.55;61.80
69223;BME280;56514;51.816;-0.026;2022-07-23T03:24:25;101327.38;;;17.68;62.08
69223;BME280;56514;51.816;-0.026;2022-07-23T03:27:30;101320.13;;;17.79;61.71
69223;BME280;56514;51.816;-0.026;2022-07-23T03:30:15;101323.66;;;17.89;61.88
69223;BME280;56514;51.816;-0.026;2022-07-23T03:33:00;101316.53;;;17.99;61.96
69223;BME280;56514;51.816;-0.026;2022-07-23T03:35:46;101323.00;;;18.06;61.67
69223;BME280;56514;51.816;-0.026;2022-07-23T03:38:31;101319.06;;;18.10;61.29
69223;BME280;56514;51.816;-0.026;2022-07-23T03:41:16;101313.31;;;18.15;61.48
69223;BME280;56514;51.816;-0.026;2022-07-23T03:44:01;101310.25;;;18.19;61.76
69223;BME280;56514;51.816;-0.026;2022-07-23T03:46:46;101313.47;;;18.23;61.71
69223;BME280;56514;51.816;-0.026;2022-07-23T03:49:31;101308.00;;;18.24;61.83
69223;BME280;56514;51.816;-0.026;2022-07-23T03:52:16;101314.75;;;18.28;61.49
69223;BME280;56514;51.816;-0.026;2022-07-23T03:55:01;101316.56;;;18.28;61.53
69223;BME280;56514;51.816;-0.026;2022-07-23T03:57:46;101314.31;;;18.23;61.50
69223;BME280;56514;51.816;-0.026;2022-07-23T04:00:31;101306.59;;;18.20;61.80
69223;BME280;56514;51.816;-0.026;2022-07-23T04:03:16;101310.25;;;18.19;61.72
69223;BME280;56514;51.816;-0.026;2022-07-23T04:06:01;101299.56;;;18.19;61.96
69223;BME280;56514;51.816;-0.026;2022-07-23T04:08:45;101297.16;;;18.16;61.86
69223;BME280;56514;51.816;-0.026;2022-07-23T04:11:30;101295.88;;;18.11;62.14
69223;BME280;56514;51.816;-0.026;2022-07-23T04:14:15;101300.50;;;18.09;62.23
69223;BME280;56514;51.816;-0.026;2022-07-23T04:17:00;101296.31;;;18.06;62.19
69223;BME280;56514;51.816;-0.026;2022-07-23T04:19:45;101298.25;;;18.04;62.13
69223;BME280;56514;51.816;-0.026;2022-07-23T04:22:30;101293.59;;;17.97;62.26
69223;BME280;56514;51.816;-0.026;2022-07-23T04:25:18;101289.63;;;17.82;62.66
69223;BME280;56514;51.816;-0.026;2022-07-23T04:28:03;101289.19;;;17.67;63.62
69223;BME280;56514;51.816;-0.026;2022-07-23T04:30:48;101293.63;;;17.57;63.55
69223;BME280;56514;51.816;-0.026;2022-07-23T04:33:33;101302.03;;;17.52;63.34
69223;BME280;56514;51.816;-0.026;2022-07-23T04:36:18;101300.75;;;17.47;63.58
69223;BME280;56514;51.816;-0.026;2022-07-23T04:39:03;101294.72;;;17.45;63.32
69223;BME280;56514;51.816;-0.026;2022-07-23T04:41:48;101305.38;;;17.45;63.45
69223;BME280;56514;51.816;-0.026;2022-07-23T04:44:32;101308.63;;;17.48;63.39
69223;BME280;56514;51.816;-0.026;2022-07-23T04:47:17;101302.03;;;17.52;63.29
69223;BME280;56514;51.816;-0.026;2022-07-23T04:50:02;101299.69;;;17.59;63.40
69223;BME280;56514;51.816;-0.026;2022-07-23T04:52:48;101296.06;;;17.70;63.01
69223;BME280;56514;51.816;-0.026;2022-07-23T04:55:33;101297.91;;;17.79;63.19
69223;BME280;56514;51.816;-0.026;2022-07-23T04:58:17;101293.88;;;17.94;63.24
69223;BME280;56514;51.816;-0.026;2022-07-23T05:01:02;101297.56;;;18.12;62.52
69223;BME280;56514;51.816;-0.026;2022-07-23T05:03:47;101295.06;;;18.29;62.41
69223;BME280;56514;51.816;-0.026;2022-07-23T05:06:32;101304.25;;;18.46;62.16
69223;BME280;56514;51.816;-0.026;2022-07-23T05:09:17;101301.00;;;18.61;62.17
69223;BME280;56514;51.816;-0.026;2022-07-23T05:12:03;101308.75;;;18.74;62.19
69223;BME280;56514;51.816;-0.026;2022-07-23T05:14:48;101300.97;;;18.80;61.87
69223;BME280;56514;51.816;-0.026;2022-07-23T05:17:33;101303.22;;;18.85;61.75
69223;BME280;56514;51.816;-0.026;2022-07-23T05:20:18;101309.44;;;18.85;61.99
69223;BME280;56514;51.816;-0.026;2022-07-23T05:23:03;101303.38;;;18.83;61.59
69223;BME280;56514;51.816;-0.026;2022-07-23T05:25:49;101307.31;;;18.79;61.76
69223;BME280;56514;51.816;-0.026;2022-07-23T05:28:34;101314.09;;;18.74;61.87
69223;BME280;56514;51.816;-0.026;2022-07-23T05:31:19;101323.22;;;18.71;62.24
69223;BME280;56514;51.816;-0.026;2022-07-23T05:34:04;101326.47;;;18.75;61.96
69223;BME280;56514;51.816;-0.026;2022-07-23T05:36:49;101322.78;;;18.85;62.36
69223;BME280;56514;51.816;-0.026;2022-07-23T05:39:35;101318.00;;;18.98;61.95
69223;BME280;56514;51.816;-0.026;2022-07-23T05:42:20;101317.53;;;19.12;62.20
69223;BME280;56514;51.816;-0.026;2022-07-23T05:45:06;101318.09;;;19.26;62.06
69223;BME280;56514;51.816;-0.026;2022-07-23T05:47:51;101315.13;;;19.38;61.65
69223;BME280;56514;51.816;-0.026;2022-07-23T05:50:37;101303.69;;;19.46;61.51
69223;BME280;56514;51.816;-0.026;2022-07-23T05:53:23;101310.56;;;19.48;61.26
69223;BME280;56514;51.816;-0.026;2022-07-23T05:56:07;101312.09;;;19.51;61.47
69223;BME280;56514;51.816;-0.026;2022-07-23T05:58:52;101315.06;;;19.48;61.17
69223;BME280;56514;51.816;-0.026;2022-07-23T06:01:37;101298.19;;;19.47;61.20
69223;BME280;56514;51.816;-0.026;2022-07-23T06:04:22;101297.34;;;19.47;61.02
69223;BME280;56514;51.816;-0.026;2022-07-23T06:07:06;101301.53;;;19.49;61.47
69223;BME280;56514;51.816;-0.026;2022-07-23T06:09:51;101304.78;;;19.53;60.95
69223;BME280;56514;51.816;-0.026;2022-07-23T06:12:39;101299.81;;;19.58;60.96
69223;BME280;56514;51.816;-0.026;2022-07-23T06:15:24;101301.91;;;19.64;61.41
69223;BME280;56514;51.816;-0.026;2022-07-23T06:18:09;101312.84;;;19.70;60.75
69223;BME280;56514;51.816;-0.026;2022-07-23T06:20:54;101315.78;;;19.77;61.09
69223;BME280;56514;51.816;-0.026;2022-07-23T06:23:39;101309.31;;;19.79;61.39
69223;BME280;56514;51.816;-0.026;2022-07-23T06:26:24;101307.59;;;19.78;61.81
69223;BME280;56514;51.816;-0.026;2022-07-23T06:29:09;101301.44;;;19.78;62.67
69223;BME280;56514;51.816;-0.026;2022-07-23T06:31:54;101303.88;;;19.62;62.83
69223;BME280;56514;51.816;-0.026;2022-07-23T06:34:39;101302.00;;;19.72;62.54
69223;BME280;56514;51.816;-0.026;2022-07-23T06:37:23;101301.50;;;19.86;63.01
69223;BME280;56514;51.816;-0.026;2022-07-23T06:40:09;101300.81;;;19.84;63.58
69223;BME280;56514;51.816;-0.026;2022-07-23T06:42:54;101299.13;;;19.83;63.47
69223;BME280;56514;51.816;-0.026;2022-07-23T06:45:39;101303.06;;;19.88;63.66
69223;BME280;56514;51.816;-0.026;2022-07-23T06:48:24;101307.97;;;19.93;63.88
69223;BME280;56514;51.816;-0.026;2022-07-23T06:51:09;101307.72;;;20.13;62.96
69223;BME280;56514;51.816;-0.026;2022-07-23T06:53:54;101308.81;;;20.20;63.32
69223;BME280;56514;51.816;-0.026;2022-07-23T06:56:38;101308.34;;;20.25;62.78
69223;BME280;56514;51.816;-0.026;2022-07-23T06:59:24;101314.47;;;20.35;62.45
69223;BME280;56514;51.816;-0.026;2022-07-23T07:02:08;101326.94;;;20.44;62.10
69223;BME280;56514;51.816;-0.026;2022-07-23T07:04:53;101327.75;;;20.54;61.64
69223;BME280;56514;51.816;-0.026;2022-07-23T07:07:38;101323.66;;;20.50;61.19
69223;BME280;56514;51.816;-0.026;2022-07-23T07:10:23;101317.91;;;20.45;61.82
69223;BME280;56514;51.816;-0.026;2022-07-23T07:13:08;101320.44;;;20.64;62.06
69223;BME280;56514;51.816;-0.026;2022-07-23T07:15:52;101326.63;;;20.82;60.72
69223;BME280;56514;51.816;-0.026;2022-07-23T07:18:38;101328.25;;;20.75;60.59
69223;BME280;56514;51.816;-0.026;2022-07-23T07:21:23;101331.09;;;20.73;61.13
69223;BME280;56514;51.816;-0.026;2022-07-23T07:24:07;101328.69;;;20.88;60.92
69223;BME280;56514;51.816;-0.026;2022-07-23T07:26:53;101316.25;;;21.05;60.20
69223;BME280;56514;51.816;-0.026;2022-07-23T07:29:38;101322.66;;;21.29;59.60
69223;BME280;56514;51.816;-0.026;2022-07-23T07:32:25;101316.75;;;21.59;58.70
69223;BME280;56514;51.816;-0.026;2022-07-23T07:35:10;101316.56;;;21.78;57.92
69223;BME280;56514;51.816;-0.026;2022-07-23T07:37:55;101325.56;;;22.03;57.38
69223;BME280;56514;51.816;-0.026;2022-07-23T07:40:40;101335.03;;;22.31;55.47
69223;BME280;56514;51.816;-0.026;2022-07-23T07:43:25;101333.03;;;22.33;54.92
69223;BME280;56514;51.816;-0.026;2022-07-23T07:46:18;101322.56;;;22.22;55.82
69223;BME280;56514;51.816;-0.026;2022-07-23T07:49:04;101321.41;;;22.32;55.82
69223;BME280;56514;51.816;-0.026;2022-07-23T07:51:51;101321.09;;;22.35;55.42
69223;BME280;56514;51.816;-0.026;2022-07-23T07:54:39;101320.03;;;22.20;55.87
69223;BME280;56514;51.816;-0.026;2022-07-23T07:57:23;101322.88;;;22.11;55.93
69223;BME280;56514;51.816;-0.026;2022-07-23T08:00:09;101323.53;;;21.97;56.13
69223;BME280;56514;51.816;-0.026;2022-07-23T08:02:55;101323.03;;;22.01;56.11
69223;BME280;56514;51.816;-0.026;2022-07-23T08:05:40;101333.13;;;22.07;56.13
69223;BME280;56514;51.816;-0.026;2022-07-23T08:08:25;101323.53;;;22.05;55.55
69223;BME280;56514;51.816;-0.026;2022-07-23T08:11:09;101317.91;;;21.82;55.87
69223;BME280;56514;51.816;-0.026;2022-07-23T08:13:54;101317.63;;;21.93;55.44
69223;BME280;56514;51.816;-0.026;2022-07-23T08:16:39;101320.03;;;22.04;55.60
69223;BME280;56514;51.816;-0.026;2022-07-23T08:19:24;101329.47;;;22.24;54.69
69223;BME280;56514;51.816;-0.026;2022-07-23T08:22:09;101325.13;;;22.47;53.47
69223;BME280;56514;51.816;-0.026;2022-07-23T08:24:54;101331.06;;;22.51;53.15
69223;BME280;56514;51.816;-0.026;2022-07-23T08:27:38;101333.03;;;22.49;52.88
69223;BME280;56514;51.816;-0.026;2022-07-23T08:30:24;101331.59;;;22.55;52.89
69223;BME280;56514;51.816;-0.026;2022-07-23T08:33:14;101321.31;;;22.66;52.84
69223;BME280;56514;51.816;-0.026;2022-07-23T08:36:00;101317.13;;;22.72;52.36
69223;BME280;56514;51.816;-0.026;2022-07-23T08:38:47;101311.41;;;22.99;52.59
69223;BME280;56514;51.816;-0.026;2022-07-23T08:41:33;101309.84;;;23.28;51.50
69223;BME280;56514;51.816;-0.026;2022-07-23T08:44:19;101313.03;;;23.40;50.05
69223;BME280;56514;51.816;-0.026;2022-07-23T08:47:04;101302.47;;;23.14;51.21
69223;BME280;56514;51.816;-0.026;2022-07-23T08:49:50;101310.03;;;23.11;50.04
69223;BME280;56514;51.816;-0.026;2022-07-23T08:52:39;101298.13;;;22.89;51.24
69223;BME280;56514;51.816;-0.026;2022-07-23T08:55:25;101301.66;;;22.98;50.46
69223;BME280;56514;51.816;-0.026;2022-07-23T08:58:10;101305.03;;;22.84;50.62
69223;BME280;56514;51.816;-0.026;2022-07-23T09:00:56;101298.47;;;22.86;51.40
69223;BME280;56514;51.816;-0.026;2022-07-23T09:03:41;101296.94;;;23.08;50.09
69223;BME280;56514;51.816;-0.026;2022-07-23T09:06:29;101294.69;;;23.19;50.06
69223;BME280;56514;51.816;-0.026;2022-07-23T09:09:35;101284.28;;;23.16;50.49
69223;BME280;56514;51.816;-0.026;2022-07-23T09:12:45;101303.66;;;23.36;49.44
69223;BME280;56514;51.816;-0.026;2022-07-23T09:15:50;101310.34;;;23.24;49.26
69223;BME280;56514;51.816;-0.026;2022-07-23T09:18:37;101310.03;;;23.19;49.52
69223;BME280;56514;51.816;-0.026;2022-07-23T09:21:30;101316.88;;;23.53;47.91
69223;BME280;56514;51.816;-0.026;2022-07-23T09:24:16;101310.63;;;23.61;47.40
69223;BME280;56514;51.816;-0.026;2022-07-23T09:27:02;101304.03;;;23.63;47.07
69223;BME280;56514;51.816;-0.026;2022-07-23T09:29:55;101312.25;;;23.78;46.99
69223;BME280;56514;51.816;-0.026;2022-07-23T09:32:41;101306.28;;;23.90;45.67
69223;BME280;56514;51.816;-0.026;2022-07-23T09:35:50;101314.53;;;23.97;45.68
69223;BME280;56514;51.816;-0.026;2022-07-23T09:38:48;101308.75;;;24.08;44.64
69223;BME280;56514;51.816;-0.026;2022-07-23T09:41:44;101316.13;;;24.14;45.30
69223;BME280;56514;51.816;-0.026;2022-07-23T09:44:29;101311.91;;;24.20;44.47
69223;BME280;56514;51.816;-0.026;2022-07-23T09:47:15;101317.50;;;24.41;42.94
69223;BME280;56514;51.816;-0.026;2022-07-23T09:50:06;101318.81;;;24.67;42.39
69223;BME280;56514;51.816;-0.026;2022-07-23T09:53:26;101320.91;;;24.57;42.24
69223;BME280;56514;51.816;-0.026;2022-07-23T09:56:13;101313.00;;;24.56;41.96
69223;BME280;56514;51.816;-0.026;2022-07-23T09:58:59;101314.38;;;24.52;42.48
69223;BME280;56514;51.816;-0.026;2022-07-23T10:01:58;101319.06;;;24.58;42.04
69223;BME280;56514;51.816;-0.026;2022-07-23T10:04:44;101323.97;;;24.77;39.38
69223;BME280;56514;51.816;-0.026;2022-07-23T10:07:37;101320.44;;;24.76;40.17
69223;BME280;56514;51.816;-0.026;2022-07-23T10:10:26;101318.16;;;24.88;40.86
69223;BME280;56514;51.816;-0.026;2022-07-23T10:13:11;101309.16;;;25.32;37.97
69223;BME280;56514;51.816;-0.026;2022-07-23T10:16:15;101304.50;;;25.41;38.79
69223;BME280;56514;51.816;-0.026;2022-07-23T10:19:20;101311.75;;;25.84;37.15
69223;BME280;56514;51.816;-0.026;2022-07-23T10:22:35;101307.69;;;26.09;37.48
69223;BME280;56514;51.816;-0.026;2022-07-23T10:25:48;101313.78;;;26.32;36.57
69223;BME280;56514;51.816;-0.026;2022-07-23T10:35:58;101318.47;;;26.80;35.54
69223;BME280;56514;51.816;-0.026;2022-07-23T10:39:24;101312.63;;;27.25;32.96
69223;BME280;56514;51.816;-0.026;2022-07-23T10:42:35;101298.53;;;27.15;33.48
69223;BME280;56514;51.816;-0.026;2022-07-23T10:45:44;101309.25;;;27.51;32.65
69223;BME280;56514;51.816;-0.026;2022-07-23T10:49:22;101294.53;;;27.67;33.67
69223;BME280;56514;51.816;-0.026;2022-07-23T10:52:32;101285.19;;;28.42;32.84
69223;BME280;56514;51.816;-0.026;2022-07-23T10:55:47;101294.03;;;28.77;31.20
69223;BME280;56514;51.816;-0.026;2022-07-23T10:59:03;101281.09;;;29.12;28.84
69223;BME280;56514;51.816;-0.026;2022-07-23T11:02:31;101283.81;;;28.66;28.71
69223;BME280;56514;51.816;-0.026;2022-07-23T11:05:45;101288.13;;;28.41;28.89
69223;BME280;56514;51.816;-0.026;2022-07-23T11:08:33;101287.91;;;28.29;29.70
69223;BME280;56514;51.816;-0.026;2022-07-23T11:11:18;101285.84;;;28.44;30.44
69223;BME280;56514;51.816;-0.026;2022-07-23T11:14:03;101269.59;;;28.57;28.69
69223;BME280;56514;51.816;-0.026;2022-07-23T11:16:48;101278.59;;;28.64;28.21
69223;BME280;56514;51.816;-0.026;2022-07-23T11:22:55;101274.53;;;28.34;28.37
69223;BME280;56514;51.816;-0.026;2022-07-23T11:25:42;101286.31;;;28.48;27.69
69223;BME280;56514;51.816;-0.026;2022-07-23T11:28:28;101275.78;;;28.19;29.14
69223;BME280;56514;51.816;-0.026;2022-07-23T11:31:17;101274.53;;;28.34;29.37
69223;BME280;56514;51.816;-0.026;2022-07-23T11:34:29;101270.22;;;28.79;29.26
69223;BME280;56514;51.816;-0.026;2022-07-23T11:37:41;101267.69;;;29.30;27.29
69223;BME280;56514;51.816;-0.026;2022-07-23T11:40:26;101265.19;;;29.22;27.49
69223;BME280;56514;51.816;-0.026;2022-07-23T11:43:12;101264.34;;;29.28;27.12
69223;BME280;56514;51.816;-0.026;2022-07-23T11:45:59;101267.47;;;29.25;26.51
69223;BME280;56514;51.816;-0.026;2022-07-23T11:48:44;101261.66;;;28.88;27.04
69223;BME280;56514;51.816;-0.026;2022-07-23T11:51:29;101254.75;;;28.99;27.73
69223;BME280;56514;51.816;-0.026;2022-07-23T11:54:16;101256.41;;;29.20;25.20
69223;BME280;56514;51.816;-0.026;2022-07-23T11:57:01;101253.94;;;28.79;25.97
69223;BME280;56514;51.816;-0.026;2022-07-23T11:59:51;101265.19;;;28.69;26.56
69223;BME280;56514;51.816;-0.026;2022-07-23T12:02:38;101265.19;;;29.02;26.58
69223;BME280;56514;51.816;-0.026;2022-07-23T12:05:27;101251.00;;;29.07;26.02
69223;BME280;56514;51.816;-0.026;2022-07-23T12:08:32;101251.41;;;29.03;26.70
69223;BME280;56514;51.816;-0.026;2022-07-23T12:11:37;101241.16;;;29.12;26.66
69223;BME280;56514;51.816;-0.026;2022-07-23T12:14:56;101243.59;;;29.46;26.40
69223;BME280;56514;51.816;-0.026;2022-07-23T12:18:01;101238.88;;;29.79;25.55
69223;BME280;56514;51.816;-0.026;2022-07-23T12:21:11;101247.06;;;30.17;24.91
69223;BME280;56514;51.816;-0.026;2022-07-23T12:24:21;101244.13;;;30.18;25.22
69223;BME280;56514;51.816;-0.026;2022-07-23T12:27:30;101242.25;;;30.50;25.47
69223;BME280;56514;51.816;-0.026;2022-07-23T12:30:47;101250.09;;;30.89;24.80
69223;BME280;56514;51.816;-0.026;2022-07-23T12:33:56;101248.03;;;30.85;24.43
69223;BME280;56514;51.816;-0.026;2022-07-23T12:37:06;101245.97;;;30.55;23.18
69223;BME280;56514;51.816;-0.026;2022-07-23T12:43:33;101247.44;;;29.89;24.81
69223;BME280;56514;51.816;-0.026;2022-07-23T12:46:50;101233.38;;;30.30;23.95
69223;BME280;56514;51.816;-0.026;2022-07-23T12:49:59;101232.59;;;30.16;24.57
69223;BME280;56514;51.816;-0.026;2022-07-23T12:53:12;101235.69;;;29.89;24.60
69223;BME280;56514;51.816;-0.026;2022-07-23T12:56:31;101231.44;;;29.55;25.49
69223;BME280;56514;51.816;-0.026;2022-07-23T12:59:41;101231.72;;;29.28;25.84
69223;BME280;56514;51.816;-0.026;2022-07-23T13:02:51;101215.22;;;29.23;26.02
69223;BME280;56514;51.816;-0.026;2022-07-23T13:05:36;101216.19;;;29.48;25.67
69223;BME280;56514;51.816;-0.026;2022-07-23T13:08:22;101224.16;;;29.93;25.56
69223;BME280;56514;51.816;-0.026;2022-07-23T13:11:07;101208.56;;;30.94;24.23
69223;BME280;56514;51.816;-0.026;2022-07-23T13:13:53;101214.38;;;32.47;22.20
69223;BME280;56514;51.816;-0.026;2022-07-23T13:16:39;101201.72;;;34.17;21.43
69223;BME280;56514;51.816;-0.026;2022-07-23T13:19:24;101197.16;;;35.87;18.91
69223;BME280;56514;51.816;-0.026;2022-07-23T13:22:09;101198.75;;;36.72;18.18
69223;BME280;56514;51.816;-0.026;2022-07-23T13:24:54;101185.44;;;37.43;17.45
69223;BME280;56514;51.816;-0.026;2022-07-23T13:27:39;101191.19;;;38.33;16.55
69223;BME280;56514;51.816;-0.026;2022-07-23T13:30:23;101191.47;;;38.16;16.51
69223;BME280;56514;51.816;-0.026;2022-07-23T13:33:09;101177.63;;;37.96;16.35
69223;BME280;56514;51.816;-0.026;2022-07-23T13:35:54;101196.09;;;38.06;16.43
69223;BME280;56514;51.816;-0.026;2022-07-23T13:38:39;101184.03;;;38.32;16.76
69223;BME280;56514;51.816;-0.026;2022-07-23T13:41:24;101176.69;;;39.31;15.46
69223;BME280;56514;51.816;-0.026;2022-07-23T13:44:08;101178.41;;;39.76;15.63
69223;BME280;56514;51.816;-0.026;2022-07-23T13:46:53;101186.28;;;40.41;15.48
69223;BME280;56514;51.816;-0.026;2022-07-23T13:49:38;101187.59;;;41.29;13.83
69223;BME280;56514;51.816;-0.026;2022-07-23T13:52:22;101187.06;;;40.75;14.80
69223;BME280;56514;51.816;-0.026;2022-07-23T13:55:08;101181.84;;;40.40;15.01
69223;BME280;56514;51.816;-0.026;2022-07-23T13:57:54;101187.06;;;40.08;15.19
69223;BME280;56514;51.816;-0.026;2022-07-23T14:00:41;101168.56;;;39.60;15.20
69223;BME280;56514;51.816;-0.026;2022-07-23T14:03:26;101167.09;;;39.09;15.88
69223;BME280;56514;51.816;-0.026;2022-07-23T14:06:11;101183.97;;;39.02;15.54
69223;BME280;56514;51.816;-0.026;2022-07-23T14:09:17;101170.44;;;38.96;16.16
69223;BME280;56514;51.816;-0.026;2022-07-23T14:12:21;101169.69;;;38.65;16.46
69223;BME280;56514;51.816;-0.026;2022-07-23T14:15:27;101170.97;;;39.18;15.94
69223;BME280;56514;51.816;-0.026;2022-07-23T14:18:32;101178.91;;;37.59;17.66
69223;BME280;56514;51.816;-0.026;2022-07-23T14:21:42;101168.88;;;35.43;19.74
69223;BME280;56514;51.816;-0.026;2022-07-23T14:24:52;101173.38;;;34.89;20.92
69223;BME280;56514;51.816;-0.026;2022-07-23T14:27:57;101182.75;;;35.53;20.15
69223;BME280;56514;51.816;-0.026;2022-07-23T14:31:07;101180.47;;;34.08;21.71
69223;BME280;56514;51.816;-0.026;2022-07-23T14:34:16;101175.88;;;32.83;23.70
69223;BME280;56514;51.816;-0.026;2022-07-23T14:37:25;101180.25;;;31.96;24.69
69223;BME280;56514;51.816;-0.026;2022-07-23T14:40:10;101187.53;;;31.55;25.83
69223;BME280;56514;51.816;-0.026;2022-07-23T14:42:54;101170.50;;;31.05;26.43
69223;BME280;56514;51.816;-0.026;2022-07-23T14:45:40;101163.63;;;30.78;27.39
69223;BME280;56514;51.816;-0.026;2022-07-23T14:48:25;101163.69;;;31.14;26.82
69223;BME280;56514;51.816;-0.026;2022-07-23T14:51:10;101177.09;;;31.16;26.88